sensor_id;sensor_type;location;lat;lon;timestamp;pressure;altitude;pressure_sealevel;temperature;humidity
7200;BME280;3641;49.082;8.200;2023-03-03T00:01:24;100651.38;;;3.03;67.36
7200;BME280;3641;49.082;8.200;2023-03-03T00:03:51;100651.25;;;3.05;66.87
7200;BME280;3641;49.082;8.200;2023-03-03T00:06:19;100655.50;;;2.31;72.86
7200;BME280;3641;49.082;8.200;2023-03-03T00:08:47;100656.09;;;1.78;75.50
7200;BME280;3641;49.082;8.200;2023-03-03T00:11:13;100651.78;;;2.55;68.66
7200;BME280;3641;49.082;8.200;2023-03-03T00:13:44;100654.09;;;2.60;72.21
7200;BME280;3641;49.082;8.200;2023-03-03T00:16:19;100653.06;;;1.72;75.42
7200;BME280;3641;49.082;8.200;2023-03-03T00:18:46;100656.22;;;2.45;71.57
7200;BME280;3641;49.082;8.200;2023-03-03T00:21:25;100662.03;;;2.72;67.41
7200;BME280;3641;49.082;8.200;2023-03-03T00:24:01;100661.81;;;2.53;69.04
7200;BME280;3641;49.082;8.200;2023-03-03T00:26:34;100665.66;;;1.71;75.64
7200;BME280;3641;49.082;8.200;2023-03-03T00:29:22;100672.00;;;2.49;68.42
7200;BME280;3641;49.082;8.200;2023-03-03T00:31:50;100675.09;;;2.11;73.93
7200;BME280;3641;49.082;8.200;2023-03-03T00:34:23;100672.34;;;1.54;76.02
7200;BME280;3641;49.082;8.200;2023-03-03T00:36:52;100666.38;;;1.73;75.37
7200;BME280;3641;49.082;8.200;2023-03-03T00:39:26;100668.84;;;2.22;72.39
7200;BME280;3641;49.082;8.200;2023-03-03T00:41:54;100672.91;;;2.16;72.88
7200;BME280;3641;49.082;8.200;2023-03-03T00:44:37;100670.66;;;1.53;75.59
7200;BME280;3641;49.082;8.200;2023-03-03T00:47:16;100667.91;;;1.42;76.69
7200;BME280;3641;49.082;8.200;2023-03-03T00:49:45;100665.22;;;1.06;78.01
7200;BME280;3641;49.082;8.200;2023-03-03T00:52:13;100661.53;;;0.96;78.44
7200;BME280;3641;49.082;8.200;2023-03-03T00:54:43;100660.41;;;1.70;71.73
7200;BME280;3641;49.082;8.200;2023-03-03T00:57:09;100662.09;;;1.71;74.47
7200;BME280;3641;49.082;8.200;2023-03-03T00:59:36;100672.38;;;1.77;73.76
7200;BME280;3641;49.082;8.200;2023-03-03T01:02:03;100664.44;;;1.29;75.81
7200;BME280;3641;49.082;8.200;2023-03-03T01:04:30;100676.84;;;1.07;77.93
7200;BME280;3641;49.082;8.200;2023-03-03T01:06:56;100664.53;;;1.74;73.37
7200;BME280;3641;49.082;8.200;2023-03-03T01:09:23;100672.78;;;1.84;70.94
7200;BME280;3641;49.082;8.200;2023-03-03T01:11:51;100671.41;;;1.78;70.45
7200;BME280;3641;49.082;8.200;2023-03-03T01:14:17;100677.66;;;1.90;69.53
7200;BME280;3641;49.082;8.200;2023-03-03T01:16:44;100668.22;;;0.90;76.77
7200;BME280;3641;49.082;8.200;2023-03-03T01:19:11;100666.22;;;1.52;70.82
7200;BME280;3641;49.082;8.200;2023-03-03T01:21:37;100664.94;;;1.69;72.55
7200;BME280;3641;49.082;8.200;2023-03-03T01:24:04;100667.00;;;1.19;75.22
7200;BME280;3641;49.082;8.200;2023-03-03T01:26:31;100670.34;;;1.45;74.19
7200;BME280;3641;49.082;8.200;2023-03-03T01:28:58;100661.09;;;1.60;75.16
7200;BME280;3641;49.082;8.200;2023-03-03T01:31:25;100658.28;;;1.62;72.06
7200;BME280;3641;49.082;8.200;2023-03-03T01:33:52;100664.44;;;1.29;76.07
7200;BME280;3641;49.082;8.200;2023-03-03T01:36:22;100659.06;;;0.93;76.68
7200;BME280;3641;49.082;8.200;2023-03-03T01:38:49;100654.38;;;0.84;76.07
7200;BME280;3641;49.082;8.200;2023-03-03T01:41:15;100663.13;;;0.99;74.86
7200;BME280;3641;49.082;8.200;2023-03-03T01:43:43;100651.31;;;1.13;76.24
7200;BME280;3641;49.082;8.200;2023-03-03T01:46:40;100643.97;;;0.79;77.59
7200;BME280;3641;49.082;8.200;2023-03-03T01:49:12;100650.31;;;1.38;74.46
7200;BME280;3641;49.082;8.200;2023-03-03T01:51:44;100645.88;;;0.66;78.13
7200;BME280;3641;49.082;8.200;2023-03-03T01:54:18;100652.53;;;0.84;77.38
7200;BME280;3641;49.082;8.200;2023-03-03T01:56:46;100645.19;;;0.75;78.31
7200;BME280;3641;49.082;8.200;2023-03-03T01:59:17;100644.66;;;0.46;79.20
7200;BME280;3641;49.082;8.200;2023-03-03T02:01:47;100654.47;;;0.34;79.01
7200;BME280;3641;49.082;8.200;2023-03-03T02:04:13;100658.09;;;0.94;73.94
7200;BME280;3641;49.082;8.200;2023-03-03T02:06:44;100658.53;;;0.40;78.90
7200;BME280;3641;49.082;8.200;2023-03-03T02:09:16;100656.91;;;0.13;79.83
7200;BME280;3641;49.082;8.200;2023-03-03T02:11:45;100656.53;;;0.30;79.73
7200;BME280;3641;49.082;8.200;2023-03-03T02:14:14;100662.69;;;0.07;80.76
7200;BME280;3641;49.082;8.200;2023-03-03T02:16:40;100659.41;;;0.88;72.08
7200;BME280;3641;49.082;8.200;2023-03-03T02:19:16;100669.31;;;0.27;79.57
7200;BME280;3641;49.082;8.200;2023-03-03T02:21:47;100665.72;;;0.39;79.25
7200;BME280;3641;49.082;8.200;2023-03-03T02:24:17;100660.25;;;0.41;78.53
7200;BME280;3641;49.082;8.200;2023-03-03T02:26:49;100672.28;;;0.72;76.54
7200;BME280;3641;49.082;8.200;2023-03-03T02:29:16;100656.34;;;0.82;75.61
7200;BME280;3641;49.082;8.200;2023-03-03T02:31:42;100657.84;;;0.49;75.57
7200;BME280;3641;49.082;8.200;2023-03-03T02:34:09;100666.53;;;0.15;79.42
7200;BME280;3641;49.082;8.200;2023-03-03T02:36:38;100658.66;;;0.62;77.52
7200;BME280;3641;49.082;8.200;2023-03-03T02:39:08;100654.19;;;0.26;78.47
7200;BME280;3641;49.082;8.200;2023-03-03T02:41:38;100655.13;;;0.86;74.31
7200;BME280;3641;49.082;8.200;2023-03-03T02:44:08;100656.88;;;0.26;78.18
7200;BME280;3641;49.082;8.200;2023-03-03T02:46:36;100668.09;;;-0.06;80.21
7200;BME280;3641;49.082;8.200;2023-03-03T02:49:05;100664.97;;;0.50;77.44
7200;BME280;3641;49.082;8.200;2023-03-03T02:51:32;100664.72;;;0.53;77.25
7200;BME280;3641;49.082;8.200;2023-03-03T02:53:59;100662.91;;;0.04;79.34
7200;BME280;3641;49.082;8.200;2023-03-03T02:56:26;100664.97;;;-0.26;80.57
7200;BME280;3641;49.082;8.200;2023-03-03T02:58:53;100665.47;;;0.18;78.29
7200;BME280;3641;49.082;8.200;2023-03-03T03:01:21;100661.34;;;0.62;76.18
7200;BME280;3641;49.082;8.200;2023-03-03T03:03:48;100665.09;;;0.35;77.58
7200;BME280;3641;49.082;8.200;2023-03-03T03:06:14;100665.91;;;0.49;77.56
7200;BME280;3641;49.082;8.200;2023-03-03T03:08:41;100657.69;;;0.87;72.32
7200;BME280;3641;49.082;8.200;2023-03-03T03:11:07;100667.81;;;0.60;76.35
7200;BME280;3641;49.082;8.200;2023-03-03T03:13:34;100670.19;;;0.02;78.43
7200;BME280;3641;49.082;8.200;2023-03-03T03:16:01;100671.53;;;-0.30;80.23
7200;BME280;3641;49.082;8.200;2023-03-03T03:18:28;100670.44;;;-0.02;79.51
7200;BME280;3641;49.082;8.200;2023-03-03T03:20:55;100665.50;;;-0.08;79.43
7200;BME280;3641;49.082;8.200;2023-03-03T03:23:22;100664.00;;;0.38;77.20
7200;BME280;3641;49.082;8.200;2023-03-03T03:25:48;100673.88;;;0.75;73.36
7200;BME280;3641;49.082;8.200;2023-03-03T03:28:16;100665.50;;;0.42;76.16
7200;BME280;3641;49.082;8.200;2023-03-03T03:30:43;100665.19;;;-0.03;79.29
7200;BME280;3641;49.082;8.200;2023-03-03T03:33:10;100667.66;;;0.50;75.25
7200;BME280;3641;49.082;8.200;2023-03-03T03:35:37;100670.13;;;0.77;75.35
7200;BME280;3641;49.082;8.200;2023-03-03T03:38:09;100668.09;;;0.92;72.66
7200;BME280;3641;49.082;8.200;2023-03-03T03:40:36;100669.88;;;1.04;72.06
7200;BME280;3641;49.082;8.200;2023-03-03T03:43:03;100680.13;;;0.99;73.55
7200;BME280;3641;49.082;8.200;2023-03-03T03:45:29;100674.47;;;0.91;75.06
7200;BME280;3641;49.082;8.200;2023-03-03T03:47:56;100678.06;;;1.03;69.68
7200;BME280;3641;49.082;8.200;2023-03-03T03:50:22;100677.22;;;1.02;70.99
7200;BME280;3641;49.082;8.200;2023-03-03T03:52:50;100674.28;;;1.05;68.66
7200;BME280;3641;49.082;8.200;2023-03-03T03:55:16;100672.91;;;1.00;71.16
7200;BME280;3641;49.082;8.200;2023-03-03T03:57:43;100677.09;;;1.04;68.75
7200;BME280;3641;49.082;8.200;2023-03-03T04:00:11;100683.25;;;0.93;70.30
7200;BME280;3641;49.082;8.200;2023-03-03T04:02:37;100684.63;;;0.99;69.04
7200;BME280;3641;49.082;8.200;2023-03-03T04:05:04;100680.28;;;0.85;71.74
7200;BME280;3641;49.082;8.200;2023-03-03T04:07:31;100682.66;;;0.89;69.17
7200;BME280;3641;49.082;8.200;2023-03-03T04:09:59;100682.81;;;0.75;72.58
7200;BME280;3641;49.082;8.200;2023-03-03T04:12:26;100696.59;;;0.08;76.32
7200;BME280;3641;49.082;8.200;2023-03-03T04:14:52;100694.13;;;0.05;77.25
7200;BME280;3641;49.082;8.200;2023-03-03T04:17:20;100682.66;;;0.52;74.35
7200;BME280;3641;49.082;8.200;2023-03-03T04:19:48;100692.72;;;0.25;75.65
7200;BME280;3641;49.082;8.200;2023-03-03T04:22:15;100692.47;;;-0.22;77.98
7200;BME280;3641;49.082;8.200;2023-03-03T04:24:41;100695.13;;;-0.35;79.35
7200;BME280;3641;49.082;8.200;2023-03-03T04:27:09;100694.81;;;-0.05;77.72
7200;BME280;3641;49.082;8.200;2023-03-03T04:29:35;100684.66;;;0.25;76.74
7200;BME280;3641;49.082;8.200;2023-03-03T04:32:02;100687.50;;;0.47;73.35
7200;BME280;3641;49.082;8.200;2023-03-03T04:34:28;100690.38;;;0.07;77.15
7200;BME280;3641;49.082;8.200;2023-03-03T04:36:55;100685.88;;;-0.44;78.63
7200;BME280;3641;49.082;8.200;2023-03-03T04:39:21;100691.91;;;-0.14;77.93
7200;BME280;3641;49.082;8.200;2023-03-03T04:41:48;100698.53;;;0.18;75.45
7200;BME280;3641;49.082;8.200;2023-03-03T04:44:16;100692.50;;;0.28;76.32
7200;BME280;3641;49.082;8.200;2023-03-03T04:46:42;100692.66;;;-0.51;79.17
7200;BME280;3641;49.082;8.200;2023-03-03T04:49:08;100694.25;;;0.03;77.41
7200;BME280;3641;49.082;8.200;2023-03-03T04:51:35;100692.78;;;-0.14;77.61
7200;BME280;3641;49.082;8.200;2023-03-03T04:54:01;100697.72;;;-0.33;78.00
7200;BME280;3641;49.082;8.200;2023-03-03T04:56:29;100696.47;;;-0.68;79.11
7200;BME280;3641;49.082;8.200;2023-03-03T04:58:55;100690.41;;;-0.44;79.29
7200;BME280;3641;49.082;8.200;2023-03-03T05:01:23;100691.19;;;-0.82;80.08
7200;BME280;3641;49.082;8.200;2023-03-03T05:03:50;100704.88;;;-0.21;78.85
7200;BME280;3641;49.082;8.200;2023-03-03T05:06:16;100702.72;;;-0.55;79.23
7200;BME280;3641;49.082;8.200;2023-03-03T05:08:43;100703.47;;;-0.93;80.84
7200;BME280;3641;49.082;8.200;2023-03-03T05:11:10;100711.69;;;-0.81;81.40
7200;BME280;3641;49.082;8.200;2023-03-03T05:13:38;100712.38;;;-0.52;78.76
7200;BME280;3641;49.082;8.200;2023-03-03T05:16:06;100701.97;;;-0.97;80.87
7200;BME280;3641;49.082;8.200;2023-03-03T05:18:35;100715.53;;;-0.85;80.89
7200;BME280;3641;49.082;8.200;2023-03-03T05:21:01;100714.81;;;-0.75;80.19
7200;BME280;3641;49.082;8.200;2023-03-03T05:23:28;100714.97;;;-0.90;80.85
7200;BME280;3641;49.082;8.200;2023-03-03T05:25:55;100723.47;;;-0.84;80.56
7200;BME280;3641;49.082;8.200;2023-03-03T05:28:22;100725.75;;;-0.65;80.03
7200;BME280;3641;49.082;8.200;2023-03-03T05:30:49;100723.38;;;-0.69;79.67
7200;BME280;3641;49.082;8.200;2023-03-03T05:33:16;100734.44;;;-1.01;81.05
7200;BME280;3641;49.082;8.200;2023-03-03T05:35:44;100734.22;;;-0.98;81.32
7200;BME280;3641;49.082;8.200;2023-03-03T05:38:10;100733.44;;;-1.13;81.86
7200;BME280;3641;49.082;8.200;2023-03-03T05:40:37;100739.75;;;-1.14;81.67
7200;BME280;3641;49.082;8.200;2023-03-03T05:43:03;100731.00;;;-0.76;78.92
7200;BME280;3641;49.082;8.200;2023-03-03T05:45:31;100733.03;;;-0.14;76.89
7200;BME280;3641;49.082;8.200;2023-03-03T05:47:58;100731.56;;;-0.58;79.35
7200;BME280;3641;49.082;8.200;2023-03-03T05:50:25;100742.66;;;-0.77;80.01
7200;BME280;3641;49.082;8.200;2023-03-03T05:52:52;100744.69;;;-0.28;76.67
7200;BME280;3641;49.082;8.200;2023-03-03T05:55:19;100743.44;;;-0.22;77.37
7200;BME280;3641;49.082;8.200;2023-03-03T05:57:45;100749.00;;;-0.12;76.46
7200;BME280;3641;49.082;8.200;2023-03-03T06:00:13;100753.16;;;-0.21;77.67
7200;BME280;3641;49.082;8.200;2023-03-03T06:02:40;100745.03;;;0.06;74.00
7200;BME280;3641;49.082;8.200;2023-03-03T06:05:08;100752.97;;;0.21;72.70
7200;BME280;3641;49.082;8.200;2023-03-03T06:07:35;100761.91;;;0.08;75.32
7200;BME280;3641;49.082;8.200;2023-03-03T06:10:04;100760.59;;;0.27;72.58
7200;BME280;3641;49.082;8.200;2023-03-03T06:12:31;100765.31;;;0.23;71.99
7200;BME280;3641;49.082;8.200;2023-03-03T06:14:57;100752.22;;;0.18;71.58
7200;BME280;3641;49.082;8.200;2023-03-03T06:17:24;100757.81;;;0.15;70.64
7200;BME280;3641;49.082;8.200;2023-03-03T06:19:50;100760.28;;;0.18;70.87
7200;BME280;3641;49.082;8.200;2023-03-03T06:22:17;100776.81;;;-0.01;73.35
7200;BME280;3641;49.082;8.200;2023-03-03T06:24:43;100772.06;;;0.16;71.47
7200;BME280;3641;49.082;8.200;2023-03-03T06:27:11;100772.75;;;0.20;71.21
7200;BME280;3641;49.082;8.200;2023-03-03T06:29:38;100772.75;;;0.20;70.88
7200;BME280;3641;49.082;8.200;2023-03-03T06:32:04;100775.75;;;0.15;72.22
7200;BME280;3641;49.082;8.200;2023-03-03T06:34:31;100778.09;;;0.20;72.09
7200;BME280;3641;49.082;8.200;2023-03-03T06:36:57;100780.69;;;0.21;73.10
7200;BME280;3641;49.082;8.200;2023-03-03T06:39:24;100790.78;;;0.30;71.37
7200;BME280;3641;49.082;8.200;2023-03-03T06:41:50;100789.38;;;0.12;73.74
7200;BME280;3641;49.082;8.200;2023-03-03T06:44:18;100792.28;;;0.09;71.72
7200;BME280;3641;49.082;8.200;2023-03-03T06:46:44;100793.91;;;0.24;70.86
7200;BME280;3641;49.082;8.200;2023-03-03T06:49:11;100790.22;;;0.25;70.48
7200;BME280;3641;49.082;8.200;2023-03-03T06:51:38;100790.00;;;0.28;70.94
7200;BME280;3641;49.082;8.200;2023-03-03T06:54:09;100796.78;;;0.21;71.84
7200;BME280;3641;49.082;8.200;2023-03-03T06:56:37;100799.38;;;0.23;72.93
7200;BME280;3641;49.082;8.200;2023-03-03T06:59:10;100795.16;;;0.31;72.26
7200;BME280;3641;49.082;8.200;2023-03-03T07:01:39;100795.59;;;0.38;70.59
7200;BME280;3641;49.082;8.200;2023-03-03T07:04:23;100799.16;;;0.39;71.27
7200;BME280;3641;49.082;8.200;2023-03-03T07:06:50;100805.81;;;0.20;74.27
7200;BME280;3641;49.082;8.200;2023-03-03T07:09:20;100811.06;;;0.34;73.25
7200;BME280;3641;49.082;8.200;2023-03-03T07:11:48;100806.66;;;0.46;70.54
7200;BME280;3641;49.082;8.200;2023-03-03T07:14:17;100805.91;;;0.44;70.92
7200;BME280;3641;49.082;8.200;2023-03-03T07:16:45;100807.94;;;0.41;73.18
7200;BME280;3641;49.082;8.200;2023-03-03T07:19:17;100811.50;;;0.28;73.42
7200;BME280;3641;49.082;8.200;2023-03-03T07:21:44;100815.78;;;0.44;72.71
7200;BME280;3641;49.082;8.200;2023-03-03T07:24:18;100808.91;;;0.52;71.31
7200;BME280;3641;49.082;8.200;2023-03-03T07:26:47;100809.56;;;0.56;71.37
7200;BME280;3641;49.082;8.200;2023-03-03T07:29:20;100815.56;;;0.60;73.38
7200;BME280;3641;49.082;8.200;2023-03-03T07:31:49;100819.72;;;0.64;71.75
7200;BME280;3641;49.082;8.200;2023-03-03T07:34:19;100822.53;;;0.62;72.36
7200;BME280;3641;49.082;8.200;2023-03-03T07:36:47;100820.28;;;0.69;72.67
7200;BME280;3641;49.082;8.200;2023-03-03T07:39:25;100827.38;;;0.57;75.38
7200;BME280;3641;49.082;8.200;2023-03-03T07:41:55;100828.66;;;0.77;74.21
7200;BME280;3641;49.082;8.200;2023-03-03T07:44:29;100829.91;;;0.84;72.58
7200;BME280;3641;49.082;8.200;2023-03-03T07:46:58;100833.03;;;0.91;72.71
7200;BME280;3641;49.082;8.200;2023-03-03T07:49:33;100836.69;;;0.90;75.01
7200;BME280;3641;49.082;8.200;2023-03-03T07:52:01;100840.63;;;0.97;72.77
7200;BME280;3641;49.082;8.200;2023-03-03T07:54:34;100845.69;;;1.02;74.00
7200;BME280;3641;49.082;8.200;2023-03-03T07:57:11;100853.06;;;1.11;72.71
7200;BME280;3641;49.082;8.200;2023-03-03T07:59:44;100848.97;;;1.18;73.36
7200;BME280;3641;49.082;8.200;2023-03-03T08:02:28;100851.09;;;1.26;76.53
7200;BME280;3641;49.082;8.200;2023-03-03T08:04:58;100848.66;;;1.47;71.24
7200;BME280;3641;49.082;8.200;2023-03-03T08:07:25;100847.34;;;1.53;70.47
7200;BME280;3641;49.082;8.200;2023-03-03T08:09:56;100850.53;;;1.58;73.41
7200;BME280;3641;49.082;8.200;2023-03-03T08:12:37;100852.13;;;1.60;75.42
7200;BME280;3641;49.082;8.200;2023-03-03T08:15:15;100848.88;;;1.68;75.97
7200;BME280;3641;49.082;8.200;2023-03-03T08:17:44;100853.47;;;1.79;73.13
7200;BME280;3641;49.082;8.200;2023-03-03T08:20:38;100852.94;;;1.74;76.52
7200;BME280;3641;49.082;8.200;2023-03-03T08:23:06;100853.34;;;1.80;77.08
7200;BME280;3641;49.082;8.200;2023-03-03T08:25:33;100854.50;;;2.00;72.54
7200;BME280;3641;49.082;8.200;2023-03-03T08:27:59;100846.69;;;2.09;72.31
7200;BME280;3641;49.082;8.200;2023-03-03T08:30:25;100839.25;;;2.12;70.67
7200;BME280;3641;49.082;8.200;2023-03-03T08:32:53;100843.16;;;2.08;75.73
7200;BME280;3641;49.082;8.200;2023-03-03T08:35:20;100847.72;;;2.19;71.84
7200;BME280;3641;49.082;8.200;2023-03-03T08:37:46;100839.41;;;2.33;70.33
7200;BME280;3641;49.082;8.200;2023-03-03T08:40:12;100844.22;;;2.41;71.37
7200;BME280;3641;49.082;8.200;2023-03-03T08:42:39;100840.88;;;2.49;71.59
7200;BME280;3641;49.082;8.200;2023-03-03T08:45:06;100842.38;;;2.53;70.13
7200;BME280;3641;49.082;8.200;2023-03-03T08:47:32;100843.84;;;2.46;72.39
7200;BME280;3641;49.082;8.200;2023-03-03T08:50:00;100845.56;;;2.69;70.05
7200;BME280;3641;49.082;8.200;2023-03-03T08:52:27;100847.28;;;2.70;71.10
7200;BME280;3641;49.082;8.200;2023-03-03T08:54:53;100847.66;;;2.77;70.24
7200;BME280;3641;49.082;8.200;2023-03-03T08:57:20;100845.56;;;2.58;74.30
7200;BME280;3641;49.082;8.200;2023-03-03T08:59:46;100857.94;;;2.72;71.35
7200;BME280;3641;49.082;8.200;2023-03-03T09:02:13;100859.78;;;2.83;70.85
7200;BME280;3641;49.082;8.200;2023-03-03T09:04:41;100866.50;;;2.88;72.63
7200;BME280;3641;49.082;8.200;2023-03-03T09:07:09;100868.72;;;2.95;71.19
7200;BME280;3641;49.082;8.200;2023-03-03T09:09:35;100871.41;;;2.95;72.15
7200;BME280;3641;49.082;8.200;2023-03-03T09:12:13;100870.69;;;3.04;71.46
7200;BME280;3641;49.082;8.200;2023-03-03T09:14:40;100873.50;;;3.14;71.29
7200;BME280;3641;49.082;8.200;2023-03-03T09:17:20;100870.56;;;3.17;72.55
7200;BME280;3641;49.082;8.200;2023-03-03T09:19:48;100871.41;;;3.17;71.86
7200;BME280;3641;49.082;8.200;2023-03-03T09:22:20;100876.53;;;3.20;72.58
7200;BME280;3641;49.082;8.200;2023-03-03T09:24:47;100880.34;;;3.40;71.17
7200;BME280;3641;49.082;8.200;2023-03-03T09:27:20;100877.75;;;3.39;71.25
7200;BME280;3641;49.082;8.200;2023-03-03T09:29:50;100880.19;;;3.53;70.82
7200;BME280;3641;49.082;8.200;2023-03-03T09:32:26;100879.28;;;3.64;70.29
7200;BME280;3641;49.082;8.200;2023-03-03T09:34:55;100890.81;;;3.66;70.05
7200;BME280;3641;49.082;8.200;2023-03-03T09:37:26;100882.84;;;3.64;71.34
7200;BME280;3641;49.082;8.200;2023-03-03T09:39:54;100877.03;;;3.80;70.18
7200;BME280;3641;49.082;8.200;2023-03-03T09:42:46;100873.44;;;3.91;69.35
7200;BME280;3641;49.082;8.200;2023-03-03T09:45:36;100880.69;;;3.79;70.71
7200;BME280;3641;49.082;8.200;2023-03-03T09:48:24;100887.66;;;3.93;69.67
7200;BME280;3641;49.082;8.200;2023-03-03T09:51:01;100887.00;;;4.01;69.25
7200;BME280;3641;49.082;8.200;2023-03-03T09:53:43;100876.03;;;4.14;68.64
7200;BME280;3641;49.082;8.200;2023-03-03T09:56:16;100886.44;;;4.18;68.95
7200;BME280;3641;49.082;8.200;2023-03-03T09:59:00;100898.16;;;4.29;68.62
7200;BME280;3641;49.082;8.200;2023-03-03T10:01:42;100895.47;;;4.29;68.85
7200;BME280;3641;49.082;8.200;2023-03-03T10:04:26;100883.75;;;4.91;67.25
7200;BME280;3641;49.082;8.200;2023-03-03T10:07:07;100890.47;;;7.50;60.42
7200;BME280;3641;49.082;8.200;2023-03-03T10:12:44;100879.63;;;9.18;51.71
7200;BME280;3641;49.082;8.200;2023-03-03T10:15:20;100880.34;;;8.68;56.27
7200;BME280;3641;49.082;8.200;2023-03-03T10:17:52;100887.72;;;8.13;55.83
7200;BME280;3641;49.082;8.200;2023-03-03T10:20:29;100888.41;;;7.79;55.71
7200;BME280;3641;49.082;8.200;2023-03-03T10:23:09;100888.13;;;7.82;58.61
7200;BME280;3641;49.082;8.200;2023-03-03T10:25:41;100884.75;;;7.25;56.67
7200;BME280;3641;49.082;8.200;2023-03-03T10:28:24;100896.22;;;7.19;63.65
7200;BME280;3641;49.082;8.200;2023-03-03T10:31:01;100886.47;;;7.26;61.02
7200;BME280;3641;49.082;8.200;2023-03-03T10:33:39;100884.41;;;7.00;57.70
7200;BME280;3641;49.082;8.200;2023-03-03T10:36:21;100883.88;;;6.97;63.22
7200;BME280;3641;49.082;8.200;2023-03-03T10:38:59;100884.94;;;7.14;59.14
7200;BME280;3641;49.082;8.200;2023-03-03T10:41:40;100886.91;;;7.21;62.04
7200;BME280;3641;49.082;8.200;2023-03-03T10:44:32;100885.47;;;6.89;57.69
7200;BME280;3641;49.082;8.200;2023-03-03T10:47:14;100891.63;;;7.19;62.88
7200;BME280;3641;49.082;8.200;2023-03-03T10:49:51;100887.22;;;7.18;62.21
7200;BME280;3641;49.082;8.200;2023-03-03T10:52:34;100894.19;;;7.21;60.43
7200;BME280;3641;49.082;8.200;2023-03-03T10:55:23;100896.75;;;7.22;60.91
7200;BME280;3641;49.082;8.200;2023-03-03T10:58:03;100895.81;;;7.14;60.37
7200;BME280;3641;49.082;8.200;2023-03-03T11:00:41;100888.59;;;7.22;61.53
7200;BME280;3641;49.082;8.200;2023-03-03T11:03:35;100895.47;;;7.26;60.75
7200;BME280;3641;49.082;8.200;2023-03-03T11:06:10;100899.03;;;7.27;58.51
7200;BME280;3641;49.082;8.200;2023-03-03T11:08:42;100898.72;;;7.30;57.97
7200;BME280;3641;49.082;8.200;2023-03-03T11:11:15;100894.72;;;7.34;61.30
7200;BME280;3641;49.082;8.200;2023-03-03T11:13:48;100906.50;;;7.43;57.99
7200;BME280;3641;49.082;8.200;2023-03-03T11:16:36;100893.09;;;7.41;59.88
7200;BME280;3641;49.082;8.200;2023-03-03T11:19:15;100904.09;;;7.40;61.03
7200;BME280;3641;49.082;8.200;2023-03-03T11:21:51;100890.81;;;7.37;59.29
7200;BME280;3641;49.082;8.200;2023-03-03T11:24:38;100892.94;;;7.43;60.98
7200;BME280;3641;49.082;8.200;2023-03-03T11:27:17;100888.19;;;7.45;60.11
7200;BME280;3641;49.082;8.200;2023-03-03T11:30:02;100880.47;;;7.50;61.19
7200;BME280;3641;49.082;8.200;2023-03-03T11:32:37;100882.88;;;7.53;59.97
7200;BME280;3641;49.082;8.200;2023-03-03T11:35:18;100879.28;;;7.53;59.38
7200;BME280;3641;49.082;8.200;2023-03-03T11:37:52;100869.59;;;7.50;59.16
7200;BME280;3641;49.082;8.200;2023-03-03T11:40:25;100857.03;;;7.49;58.74
7200;BME280;3641;49.082;8.200;2023-03-03T11:43:00;100866.31;;;7.46;57.76
7200;BME280;3641;49.082;8.200;2023-03-03T11:45:34;100860.13;;;7.54;60.40
7200;BME280;3641;49.082;8.200;2023-03-03T11:48:11;100862.84;;;7.54;58.59
7200;BME280;3641;49.082;8.200;2023-03-03T11:50:45;100854.31;;;7.49;59.95
7200;BME280;3641;49.082;8.200;2023-03-03T11:53:28;100862.78;;;7.64;60.28
7200;BME280;3641;49.082;8.200;2023-03-03T11:56:03;100863.81;;;7.63;59.45
7200;BME280;3641;49.082;8.200;2023-03-03T11:58:38;100854.34;;;8.03;57.99
7200;BME280;3641;49.082;8.200;2023-03-03T12:01:16;100849.91;;;7.84;58.54
7200;BME280;3641;49.082;8.200;2023-03-03T12:03:48;100850.00;;;7.74;58.47
7200;BME280;3641;49.082;8.200;2023-03-03T12:06:20;100854.09;;;7.78;59.54
7200;BME280;3641;49.082;8.200;2023-03-03T12:09:18;100853.09;;;7.79;58.57
7200;BME280;3641;49.082;8.200;2023-03-03T12:11:52;100847.88;;;7.86;59.44
7200;BME280;3641;49.082;8.200;2023-03-03T12:14:35;100847.81;;;7.96;58.02
7200;BME280;3641;49.082;8.200;2023-03-03T12:17:13;100852.00;;;7.90;57.73
7200;BME280;3641;49.082;8.200;2023-03-03T12:19:48;100848.69;;;7.96;59.23
7200;BME280;3641;49.082;8.200;2023-03-03T12:22:26;100846.97;;;7.95;57.98
7200;BME280;3641;49.082;8.200;2023-03-03T12:25:18;100839.25;;;7.91;58.40
7200;BME280;3641;49.082;8.200;2023-03-03T12:27:51;100830.97;;;7.92;58.63
7200;BME280;3641;49.082;8.200;2023-03-03T12:30:28;100826.31;;;8.03;56.75
7200;BME280;3641;49.082;8.200;2023-03-03T12:33:14;100827.69;;;8.07;58.74
7200;BME280;3641;49.082;8.200;2023-03-03T12:35:52;100821.50;;;7.96;56.14
7200;BME280;3641;49.082;8.200;2023-03-03T12:38:29;100827.38;;;8.10;56.43
7200;BME280;3641;49.082;8.200;2023-03-03T12:41:02;100827.22;;;8.11;58.31
7200;BME280;3641;49.082;8.200;2023-03-03T12:43:42;100819.59;;;8.15;57.27
7200;BME280;3641;49.082;8.200;2023-03-03T12:46:18;100821.53;;;8.23;59.45
7200;BME280;3641;49.082;8.200;2023-03-03T12:48:49;100824.56;;;8.19;58.22
7200;BME280;3641;49.082;8.200;2023-03-03T12:51:23;100817.47;;;8.27;58.70
7200;BME280;3641;49.082;8.200;2023-03-03T12:54:14;100814.22;;;8.23;56.02
7200;BME280;3641;49.082;8.200;2023-03-03T12:56:49;100821.97;;;8.36;55.81
7200;BME280;3641;49.082;8.200;2023-03-03T12:59:21;100813.97;;;8.34;58.10
7200;BME280;3641;49.082;8.200;2023-03-03T13:02:11;100820.84;;;8.21;58.46
7200;BME280;3641;49.082;8.200;2023-03-03T13:04:45;100816.84;;;8.33;59.20
7200;BME280;3641;49.082;8.200;2023-03-03T13:07:20;100816.19;;;8.39;57.33
7200;BME280;3641;49.082;8.200;2023-03-03T13:10:00;100819.25;;;8.36;53.65
7200;BME280;3641;49.082;8.200;2023-03-03T13:12:36;100818.06;;;8.39;57.50
7200;BME280;3641;49.082;8.200;2023-03-03T13:15:12;100812.72;;;8.47;58.22
7200;BME280;3641;49.082;8.200;2023-03-03T13:17:48;100819.03;;;8.47;56.94
7200;BME280;3641;49.082;8.200;2023-03-03T13:20:28;100817.50;;;8.53;58.22
7200;BME280;3641;49.082;8.200;2023-03-03T13:22:58;100820.56;;;8.50;55.04
7200;BME280;3641;49.082;8.200;2023-03-03T13:25:36;100820.56;;;8.50;57.16
7200;BME280;3641;49.082;8.200;2023-03-03T13:28:13;100807.47;;;8.53;55.11
7200;BME280;3641;49.082;8.200;2023-03-03T13:30:47;100803.75;;;8.54;57.92
7200;BME280;3641;49.082;8.200;2023-03-03T13:33:16;100800.66;;;8.49;54.14
7200;BME280;3641;49.082;8.200;2023-03-03T13:35:51;100798.31;;;8.54;58.45
7200;BME280;3641;49.082;8.200;2023-03-03T13:38:21;100792.38;;;8.59;56.48
7200;BME280;3641;49.082;8.200;2023-03-03T13:40:51;100805.63;;;8.54;56.16
7200;BME280;3641;49.082;8.200;2023-03-03T13:43:22;100798.16;;;8.56;56.81
7200;BME280;3641;49.082;8.200;2023-03-03T13:45:58;100799.69;;;8.59;57.46